Aviation Digital Data Service (ADDS)

Output produced by METARs form (0823 UTC 20 April 2018)
found at http://aviationweather.gov/adds/metars/
 
KEWR 200532Z 2006/2112 29011KT P6SM FEW050 
     FM201200 31018G25KT P6SM SCT050 
     FM210300 33011KT P6SM SKC 
     FM210700 31008KT P6SM SKC